Terminal Aerodrome Forecast
Issued by NWS

Current Version | Previous Version | Graphics & Text | Print | Product List | Glossary On
Versions: 1 2 3 4 5 6 7 8 9 10 11 12 13 14 15 16 17 18 19 20 21 22 23 24 25 26 27 28 29 30 31 32
000
FTUS41 KILN 041730
TAFLCK
TAF
KLCK 041730Z 0418/0518 17006KT P6SM SCT040
     FM042000 21008KT P6SM VCTS BKN040CB
     FM050100 VRB03KT P6SM SCT060
     FM050800 00000KT 5SM BR SKC
     FM051300 15005KT P6SM SCT040=

USA.gov is the U.S. government's official web portal to all federal, state and local government web resources and services.